Time;durP1;ratioP1;P1;durP2;ratioP2;P2;SDS_P1;SDS_P2;PMS_P1;PMS_P2;Temp;Humidity;BMP_temperature;BMP_pressure;BME280_temperature;BME280_humidity;BME280_pressure;Samples;Min_cycle;Max_cycle;Signal;HPM_P1;HPM_P2
2022/07/13 00:00:13;;;;;;;;;;;26.60;92.40;;;;;;5087964;28;20012;-66
2022/07/13 00:02:39;;;;;;;;;;;26.60;92.40;;;;;;5106220;28;19945;-56
2022/07/13 00:05:08;;;;;;;;;;;26.70;92.30;;;;;;5105886;28;19908;-56
2022/07/13 00:07:34;;;;;;;;;;;26.60;92.30;;;;;;5105963;28;19923;-54
2022/07/13 00:10:01;;;;;;;;;;;26.70;92.30;;;;;;5106600;28;19908;-60
2022/07/13 00:12:27;;;;;;;;;;;26.70;92.20;;;;;;5106135;28;19928;-60
2022/07/13 00:14:53;;;;;;;;;;;26.70;92.20;;;;;;5105862;28;19949;-62
2022/07/13 00:17:19;;;;;;;;;;;26.70;92.00;;;;;;5106291;28;19908;-56
2022/07/13 00:19:45;;;;;;;;;;;26.70;92.00;;;;;;5105658;28;19915;-55
2022/07/13 00:22:12;;;;;;;;;;;26.70;92.00;;;;;;5105621;28;19922;-56
2022/07/13 00:24:38;;;;;;;;;;;26.60;91.90;;;;;;5106107;28;19943;-55
2022/07/13 00:27:04;;;;;;;;;;;26.70;91.90;;;;;;5105798;28;19965;-55
2022/07/13 00:29:30;;;;;;;;;;;26.60;91.70;;;;;;5105570;28;19971;-56
2022/07/13 00:31:56;;;;;;;;;;;26.60;91.70;;;;;;5105460;28;19908;-60
2022/07/13 00:34:22;;;;;;;;;;;26.60;91.50;;;;;;5105430;28;19947;-63
2022/07/13 00:36:48;;;;;;;;;;;26.60;91.40;;;;;;5105677;28;19907;-54
2022/07/13 00:39:15;;;;;;;;;;;26.60;91.50;;;;;;5107758;28;19950;-61
2022/07/13 00:41:47;;;;;;;;;;;26.60;91.20;;;;;;5119738;28;19939;-55
2022/07/13 00:44:14;;;;;;;;;;;26.50;91.20;;;;;;5124377;28;19986;-57
2022/07/13 00:46:44;;;;;;;;;;;26.50;91.20;;;;;;5115731;28;19899;-57
2022/07/13 00:49:11;;;;;;;;;;;26.40;91.20;;;;;;5104956;28;19916;-61
2022/07/13 00:51:38;;;;;;;;;;;26.40;91.10;;;;;;5107309;28;19912;-65
2022/07/13 00:54:04;;;;;;;;;;;26.40;91.20;;;;;;5121625;28;20199;-60
2022/07/13 00:56:31;;;;;;;;;;;26.30;90.90;;;;;;5124943;28;19927;-58
2022/07/13 00:58:58;;;;;;;;;;;26.30;91.10;;;;;;5125134;28;19939;-58
2022/07/13 01:01:24;;;;;;;;;;;26.30;91.00;;;;;;5124094;28;19904;-58
2022/07/13 01:03:50;;;;;;;;;;;26.30;91.00;;;;;;5122825;28;19954;-57
2022/07/13 01:06:17;;;;;;;;;;;26.30;90.90;;;;;;5115457;28;19899;-63
2022/07/13 01:08:44;;;;;;;;;;;26.30;90.90;;;;;;5124756;28;19942;-58
2022/07/13 01:11:10;;;;;;;;;;;26.20;90.70;;;;;;5124175;28;19903;-61
2022/07/13 01:13:36;;;;;;;;;;;26.20;90.70;;;;;;5124264;28;20113;-58
2022/07/13 01:16:03;;;;;;;;;;;26.20;90.80;;;;;;5124466;28;20073;-59
2022/07/13 01:18:30;;;;;;;;;;;26.20;90.80;;;;;;5124442;28;19900;-60
2022/07/13 01:20:57;;;;;;;;;;;26.20;90.50;;;;;;5124429;28;19971;-64
2022/07/13 01:23:23;;;;;;;;;;;26.20;90.60;;;;;;5124456;28;19899;-60
2022/07/13 01:25:49;;;;;;;;;;;26.20;90.50;;;;;;5124525;28;19906;-58
2022/07/13 01:28:15;;;;;;;;;;;26.20;90.40;;;;;;5124351;28;19899;-59
2022/07/13 01:30:43;;;;;;;;;;;26.30;90.50;;;;;;5124214;28;19899;-63
2022/07/13 01:33:09;;;;;;;;;;;26.30;90.50;;;;;;5124551;28;19915;-57
2022/07/13 01:35:35;;;;;;;;;;;26.30;90.40;;;;;;5123733;28;19998;-58
2022/07/13 01:38:01;;;;;;;;;;;26.30;90.40;;;;;;5119719;28;19926;-62
2022/07/13 01:40:28;;;;;;;;;;;26.30;90.40;;;;;;5113738;28;19912;-58
2022/07/13 01:42:54;;;;;;;;;;;26.40;90.60;;;;;;5110333;28;19904;-56
2022/07/13 01:45:22;;;;;;;;;;;26.40;90.60;;;;;;5119877;28;19919;-57
2022/07/13 01:47:49;;;;;;;;;;;26.40;90.50;;;;;;5108351;28;20068;-64
2022/07/13 01:50:16;;;;;;;;;;;26.40;90.30;;;;;;5108635;28;19915;-57
2022/07/13 01:52:42;;;;;;;;;;;26.40;90.30;;;;;;5108018;28;19899;-59
2022/07/13 01:55:11;;;;;;;;;;;26.40;90.20;;;;;;5108364;28;20274;-59
2022/07/13 01:57:37;;;;;;;;;;;26.50;90.10;;;;;;5107947;28;19935;-58
2022/07/13 02:00:05;;;;;;;;;;;26.50;90.00;;;;;;5108248;28;19915;-61
2022/07/13 02:02:31;;;;;;;;;;;26.50;90.00;;;;;;5107820;28;19900;-56
2022/07/13 02:04:57;;;;;;;;;;;26.50;89.80;;;;;;5107879;28;19908;-57
2022/07/13 02:07:23;;;;;;;;;;;26.50;90.00;;;;;;5107828;28;20181;-57
2022/07/13 02:09:50;;;;;;;;;;;26.50;89.70;;;;;;5107831;28;19957;-58
2022/07/13 02:12:17;;;;;;;;;;;26.50;89.60;;;;;;5107294;28;19900;-58
2022/07/13 02:14:43;;;;;;;;;;;26.50;89.60;;;;;;5119597;28;19935;-62
2022/07/13 02:17:09;;;;;;;;;;;26.50;89.60;;;;;;5107475;28;19900;-58
2022/07/13 02:19:35;;;;;;;;;;;26.50;89.50;;;;;;5108070;28;19908;-58
2022/07/13 02:22:02;;;;;;;;;;;26.50;89.30;;;;;;5115868;28;19950;-64
2022/07/13 02:24:28;;;;;;;;;;;26.50;89.10;;;;;;5128209;28;20199;-59
2022/07/13 02:26:54;;;;;;;;;;;26.50;89.30;;;;;;5127742;28;20214;-56
2022/07/13 02:29:20;;;;;;;;;;;26.50;89.20;;;;;;5128072;28;19910;-62
2022/07/13 02:31:46;;;;;;;;;;;26.50;88.60;;;;;;5127802;28;19966;-57
2022/07/13 02:34:12;;;;;;;;;;;26.50;88.90;;;;;;5127609;28;20230;-62
2022/07/13 02:36:38;;;;;;;;;;;26.50;88.80;;;;;;5126650;28;20073;-57
2022/07/13 02:39:04;;;;;;;;;;;26.50;88.70;;;;;;5126525;28;19935;-62
2022/07/13 02:41:30;;;;;;;;;;;26.50;88.90;;;;;;5126413;28;19911;-59
2022/07/13 02:43:56;;;;;;;;;;;26.50;88.60;;;;;;5126331;28;19978;-57
2022/07/13 02:46:23;;;;;;;;;;;26.50;88.70;;;;;;5126279;28;19905;-57
2022/07/13 02:48:49;;;;;;;;;;;26.50;88.80;;;;;;5126249;28;19915;-57
2022/07/13 02:51:15;;;;;;;;;;;26.50;89.20;;;;;;5125343;28;19907;-58
2022/07/13 02:53:41;;;;;;;;;;;26.50;88.70;;;;;;5144391;28;20207;-58
2022/07/13 02:56:07;;;;;;;;;;;26.50;88.80;;;;;;5146661;28;19906;-58
2022/07/13 02:58:34;;;;;;;;;;;26.50;88.60;;;;;;5144722;28;19907;-57
2022/07/13 03:01:00;;;;;;;;;;;26.50;88.70;;;;;;5146640;28;19903;-60
2022/07/13 03:03:26;;;;;;;;;;;26.50;88.90;;;;;;5145562;28;20096;-58
2022/07/13 03:05:52;;;;;;;;;;;26.50;89.00;;;;;;5145729;28;19926;-59
2022/07/13 03:08:18;;;;;;;;;;;26.50;89.00;;;;;;5146252;28;19965;-62
2022/07/13 03:10:45;;;;;;;;;;;26.40;89.00;;;;;;5146158;28;19899;-59
2022/07/13 03:13:11;;;;;;;;;;;26.40;89.10;;;;;;5145774;28;19899;-65
2022/07/13 03:15:38;;;;;;;;;;;26.40;89.10;;;;;;5129865;28;19940;-60
2022/07/13 03:18:04;;;;;;;;;;;26.40;89.30;;;;;;5134947;28;19904;-58
2022/07/13 03:20:30;;;;;;;;;;;26.40;89.30;;;;;;5146549;28;19915;-57
2022/07/13 03:22:56;;;;;;;;;;;26.40;89.30;;;;;;5146627;28;19944;-57
2022/07/13 03:25:22;;;;;;;;;;;26.40;89.20;;;;;;5146776;28;19922;-56
2022/07/13 03:27:48;;;;;;;;;;;26.40;88.80;;;;;;5146465;28;20184;-56
2022/07/13 03:30:14;;;;;;;;;;;26.40;88.90;;;;;;5117813;28;20131;-57
2022/07/13 03:32:41;;;;;;;;;;;26.40;88.70;;;;;;5114597;28;19900;-57
2022/07/13 03:35:08;;;;;;;;;;;26.40;89.00;;;;;;5042059;28;2333741;-64
2022/07/13 03:37:34;;;;;;;;;;;26.50;88.90;;;;;;5106643;28;19970;-58
2022/07/13 03:40:00;;;;;;;;;;;26.40;88.90;;;;;;5129783;27;19899;-60
2022/07/13 03:42:26;;;;;;;;;;;26.40;88.90;;;;;;5147194;27;19914;-62
2022/07/13 03:44:52;;;;;;;;;;;26.40;88.80;;;;;;5147617;27;20243;-59
2022/07/13 03:47:18;;;;;;;;;;;26.40;88.70;;;;;;5147167;27;19942;-57
2022/07/13 03:49:44;;;;;;;;;;;26.40;88.90;;;;;;5146781;27;20091;-58
2022/07/13 03:52:10;;;;;;;;;;;26.40;88.80;;;;;;5147212;27;19907;-59
2022/07/13 03:54:37;;;;;;;;;;;26.40;88.50;;;;;;5147353;27;19899;-62
2022/07/13 03:57:03;;;;;;;;;;;26.40;88.50;;;;;;5146694;27;19990;-59
2022/07/13 03:59:29;;;;;;;;;;;26.40;88.50;;;;;;5147009;27;19939;-59
2022/07/13 04:01:55;;;;;;;;;;;26.40;88.70;;;;;;5146875;27;19939;-58
2022/07/13 04:04:21;;;;;;;;;;;26.40;88.70;;;;;;5146257;27;19900;-57
2022/07/13 04:06:47;;;;;;;;;;;26.40;88.70;;;;;;5146795;27;20415;-58
2022/07/13 04:09:14;;;;;;;;;;;26.40;88.80;;;;;;5146875;27;19906;-58
2022/07/13 04:11:40;;;;;;;;;;;26.40;89.00;;;;;;5146706;27;19915;-60
2022/07/13 04:14:06;;;;;;;;;;;26.40;89.60;;;;;;5146448;27;19900;-57
2022/07/13 04:16:32;;;;;;;;;;;26.40;89.20;;;;;;5146698;27;19915;-57
2022/07/13 04:18:58;;;;;;;;;;;26.40;89.50;;;;;;5146776;27;19899;-57
2022/07/13 04:21:24;;;;;;;;;;;26.40;89.30;;;;;;5145623;27;19982;-58
2022/07/13 04:23:51;;;;;;;;;;;26.40;89.20;;;;;;5146082;27;19899;-63
2022/07/13 04:26:17;;;;;;;;;;;26.40;89.40;;;;;;5145963;27;19907;-58
2022/07/13 04:28:43;;;;;;;;;;;26.30;89.20;;;;;;5146286;27;20131;-57
2022/07/13 04:31:09;;;;;;;;;;;26.30;89.50;;;;;;5146309;27;19914;-62
2022/07/13 04:33:35;;;;;;;;;;;26.40;89.70;;;;;;5146215;27;20012;-58
2022/07/13 04:36:01;;;;;;;;;;;26.30;90.00;;;;;;5144567;27;19915;-62
2022/07/13 04:38:27;;;;;;;;;;;26.30;90.00;;;;;;5116714;28;19942;-59
2022/07/13 04:40:53;;;;;;;;;;;26.30;90.10;;;;;;5104832;28;20039;-58
2022/07/13 04:43:19;;;;;;;;;;;26.30;90.20;;;;;;5122255;28;19927;-60
2022/07/13 04:45:45;;;;;;;;;;;26.30;90.10;;;;;;5117251;27;19916;-60
2022/07/13 04:48:12;;;;;;;;;;;26.30;90.00;;;;;;5109463;28;20116;-60
2022/07/13 04:50:38;;;;;;;;;;;26.30;90.00;;;;;;5120991;28;19904;-59
2022/07/13 04:53:04;;;;;;;;;;;26.30;90.10;;;;;;5125356;28;19900;-59
2022/07/13 04:55:30;;;;;;;;;;;26.30;90.30;;;;;;5140436;27;19919;-59
2022/07/13 04:57:57;;;;;;;;;;;26.30;90.40;;;;;;5146061;27;19903;-64
2022/07/13 05:00:24;;;;;;;;;;;26.30;90.20;;;;;;5146054;27;19907;-63
2022/07/13 05:02:50;;;;;;;;;;;26.30;90.10;;;;;;5146099;27;20154;-59
2022/07/13 05:05:16;;;;;;;;;;;26.30;89.50;;;;;;5146171;27;19903;-62
2022/07/13 05:07:42;;;;;;;;;;;26.30;89.30;;;;;;5145511;27;19904;-61
2022/07/13 05:10:08;;;;;;;;;;;26.30;89.30;;;;;;5145923;27;19903;-62
2022/07/13 05:12:41;;;;;;;;;;;26.30;89.30;;;;;;5145792;27;20126;-59
2022/07/13 05:15:08;;;;;;;;;;;26.30;89.40;;;;;;5145560;27;19972;-57
2022/07/13 05:17:34;;;;;;;;;;;26.30;89.40;;;;;;5145865;27;19911;-61
2022/07/13 05:20:01;;;;;;;;;;;26.30;89.70;;;;;;5141867;27;19904;-61
2022/07/13 05:22:27;;;;;;;;;;;26.30;89.80;;;;;;5124985;28;19945;-60
2022/07/13 05:24:53;;;;;;;;;;;26.20;89.70;;;;;;5135088;27;19903;-61
2022/07/13 05:27:19;;;;;;;;;;;26.30;90.00;;;;;;5145735;28;20180;-60
2022/07/13 05:29:45;;;;;;;;;;;26.20;90.10;;;;;;5145780;28;20074;-64
2022/07/13 05:32:11;;;;;;;;;;;26.20;90.10;;;;;;5145654;28;19903;-63
2022/07/13 05:34:37;;;;;;;;;;;26.20;90.30;;;;;;5145560;28;19924;-62
2022/07/13 05:37:03;;;;;;;;;;;26.20;90.30;;;;;;5145690;28;19904;-61
2022/07/13 05:39:30;;;;;;;;;;;26.20;90.40;;;;;;5135760;28;20180;-61
2022/07/13 05:41:56;;;;;;;;;;;26.20;90.50;;;;;;5145458;28;19907;-58
2022/07/13 05:44:22;;;;;;;;;;;26.20;90.50;;;;;;5145564;28;19907;-64
2022/07/13 05:46:48;;;;;;;;;;;26.20;90.70;;;;;;5145557;28;19948;-61
2022/07/13 05:49:14;;;;;;;;;;;26.20;90.70;;;;;;5145567;28;20043;-64
2022/07/13 05:51:40;;;;;;;;;;;26.20;90.80;;;;;;5145663;28;19904;-61
2022/07/13 05:54:07;;;;;;;;;;;26.20;90.90;;;;;;5145463;28;19974;-63
2022/07/13 05:56:33;;;;;;;;;;;26.20;90.90;;;;;;5145147;28;19904;-62
2022/07/13 05:59:00;;;;;;;;;;;26.20;91.00;;;;;;5145423;28;19907;-59
2022/07/13 06:01:26;;;;;;;;;;;26.20;91.00;;;;;;5145211;28;19915;-61
2022/07/13 06:03:52;;;;;;;;;;;26.20;91.10;;;;;;5145102;28;19904;-61
2022/07/13 06:06:19;;;;;;;;;;;26.20;91.20;;;;;;5145415;28;20207;-60
2022/07/13 06:08:45;;;;;;;;;;;26.20;91.30;;;;;;5145379;28;19939;-64
2022/07/13 06:11:11;;;;;;;;;;;26.10;91.20;;;;;;5145196;28;19910;-60
2022/07/13 06:13:37;;;;;;;;;;;26.20;91.30;;;;;;5145080;28;20187;-61
2022/07/13 06:16:04;;;;;;;;;;;26.10;91.20;;;;;;5144906;28;19903;-62
2022/07/13 06:18:30;;;;;;;;;;;26.10;91.30;;;;;;5145201;28;19899;-58
2022/07/13 06:20:56;;;;;;;;;;;26.10;91.40;;;;;;5144803;28;19914;-60
2022/07/13 06:23:23;;;;;;;;;;;26.10;91.40;;;;;;5144973;28;19903;-62
2022/07/13 06:25:49;;;;;;;;;;;26.10;91.40;;;;;;5144756;27;19910;-59
2022/07/13 06:28:15;;;;;;;;;;;26.10;91.50;;;;;;5148075;27;19920;-58
2022/07/13 06:30:41;;;;;;;;;;;26.10;91.50;;;;;;5148756;27;19968;-58
2022/07/13 06:33:08;;;;;;;;;;;26.10;91.50;;;;;;5148971;27;19907;-65
2022/07/13 06:35:34;;;;;;;;;;;26.10;91.50;;;;;;5148986;27;19933;-62
2022/07/13 06:38:00;;;;;;;;;;;26.10;91.50;;;;;;5148410;27;19910;-67
2022/07/13 06:40:26;;;;;;;;;;;26.10;91.50;;;;;;5149274;27;20100;-57
2022/07/13 06:42:52;;;;;;;;;;;26.10;91.60;;;;;;5149156;27;19961;-59
2022/07/13 06:45:19;;;;;;;;;;;26.10;91.80;;;;;;5149018;27;19933;-61
2022/07/13 06:47:45;;;;;;;;;;;26.00;91.90;;;;;;5148387;27;19903;-57
2022/07/13 06:50:11;;;;;;;;;;;26.00;92.00;;;;;;5148864;27;19903;-63
2022/07/13 06:52:40;;;;;;;;;;;25.90;92.00;;;;;;5148474;27;19903;-57
2022/07/13 06:55:07;;;;;;;;;;;25.90;92.20;;;;;;5148759;27;19904;-59
2022/07/13 06:57:34;;;;;;;;;;;26.00;92.30;;;;;;5148378;27;19903;-55
2022/07/13 07:00:00;;;;;;;;;;;25.90;92.30;;;;;;5148418;27;19942;-58
2022/07/13 07:02:26;;;;;;;;;;;25.90;92.30;;;;;;5147975;27;20126;-57
2022/07/13 07:04:54;;;;;;;;;;;25.90;92.40;;;;;;5148436;27;19903;-58
2022/07/13 07:07:20;;;;;;;;;;;25.90;92.40;;;;;;5148165;27;20192;-61
2022/07/13 07:09:46;;;;;;;;;;;25.90;92.40;;;;;;5148579;27;20158;-57
2022/07/13 07:12:12;;;;;;;;;;;25.80;92.40;;;;;;5148122;27;19946;-61
2022/07/13 07:14:39;;;;;;;;;;;25.80;92.40;;;;;;5148454;27;19903;-57
2022/07/13 07:17:05;;;;;;;;;;;25.80;92.50;;;;;;5148097;27;19911;-59
2022/07/13 07:19:31;;;;;;;;;;;25.80;92.50;;;;;;5148158;27;19904;-61
2022/07/13 07:21:57;;;;;;;;;;;25.70;92.60;;;;;;5147681;27;20107;-59
2022/07/13 07:24:23;;;;;;;;;;;25.70;92.60;;;;;;5148100;27;20124;-62
2022/07/13 07:26:50;;;;;;;;;;;25.70;92.60;;;;;;5147812;27;19938;-62
2022/07/13 07:29:16;;;;;;;;;;;25.70;92.70;;;;;;5147888;27;19903;-58
2022/07/13 07:31:42;;;;;;;;;;;25.70;92.70;;;;;;5148099;27;19910;-65
2022/07/13 07:34:08;;;;;;;;;;;25.70;92.80;;;;;;5147851;27;19935;-61
2022/07/13 07:36:35;;;;;;;;;;;25.70;92.80;;;;;;5147684;27;19915;-58
2022/07/13 07:39:01;;;;;;;;;;;25.70;92.90;;;;;;5146056;27;20013;-61
2022/07/13 07:41:27;;;;;;;;;;;25.70;92.90;;;;;;5147268;27;19970;-60
2022/07/13 07:43:53;;;;;;;;;;;25.70;93.00;;;;;;5147933;27;19904;-57
2022/07/13 07:46:19;;;;;;;;;;;25.70;93.00;;;;;;5147214;27;20196;-59
2022/07/13 07:48:45;;;;;;;;;;;25.70;92.90;;;;;;5147267;27;19903;-58
2022/07/13 07:51:11;;;;;;;;;;;25.60;92.90;;;;;;5146945;27;19903;-58
2022/07/13 07:53:38;;;;;;;;;;;25.60;92.90;;;;;;5147300;27;19934;-60
2022/07/13 07:56:04;;;;;;;;;;;25.60;92.90;;;;;;5147454;27;19904;-59
2022/07/13 07:58:31;;;;;;;;;;;25.60;92.90;;;;;;5147301;27;19903;-58
2022/07/13 08:00:57;;;;;;;;;;;25.60;93.00;;;;;;5147415;27;20240;-58
2022/07/13 08:03:23;;;;;;;;;;;25.60;93.00;;;;;;5147143;27;19944;-59
2022/07/13 08:05:52;;;;;;;;;;;25.50;93.00;;;;;;5146898;27;19904;-62
2022/07/13 08:08:18;;;;;;;;;;;25.50;93.10;;;;;;5146938;27;19940;-60
2022/07/13 08:10:45;;;;;;;;;;;25.50;93.00;;;;;;5147135;27;19903;-57
2022/07/13 08:13:11;;;;;;;;;;;25.50;92.80;;;;;;5146856;27;19899;-60
2022/07/13 08:15:37;;;;;;;;;;;25.50;92.90;;;;;;5147005;27;19975;-54
2022/07/13 08:18:03;;;;;;;;;;;25.50;92.80;;;;;;5146887;27;19905;-56
2022/07/13 08:20:30;;;;;;;;;;;25.50;92.80;;;;;;5147131;27;20198;-58
2022/07/13 08:22:56;;;;;;;;;;;25.50;92.70;;;;;;5146845;27;19903;-59
2022/07/13 08:25:23;;;;;;;;;;;25.50;92.70;;;;;;5147009;27;19974;-60
2022/07/13 08:27:49;;;;;;;;;;;25.50;92.60;;;;;;5146745;27;19970;-57
2022/07/13 08:30:15;;;;;;;;;;;25.50;92.60;;;;;;5147198;27;19903;-55
2022/07/13 08:32:42;;;;;;;;;;;25.50;92.60;;;;;;5146448;27;19910;-57
2022/07/13 08:40:41;;;;;;;;;;;25.40;92.60;;;;;;5146290;27;20159;-57
2022/07/13 08:43:07;;;;;;;;;;;25.40;92.70;;;;;;5146124;27;19900;-59
2022/07/13 08:45:33;;;;;;;;;;;25.40;92.60;;;;;;5146433;27;20164;-57
2022/07/13 08:48:00;;;;;;;;;;;25.40;92.60;;;;;;5146049;27;19903;-58
2022/07/13 08:50:27;;;;;;;;;;;25.40;92.60;;;;;;5146264;27;19935;-60
2022/07/13 08:52:54;;;;;;;;;;;25.40;92.70;;;;;;5145942;27;19903;-61
2022/07/13 08:55:20;;;;;;;;;;;25.40;92.70;;;;;;5146211;27;20091;-59
2022/07/13 08:57:47;;;;;;;;;;;25.40;92.60;;;;;;5145802;27;19907;-56
2022/07/13 09:00:13;;;;;;;;;;;25.40;92.70;;;;;;5146023;27;20251;-56
2022/07/13 09:02:39;;;;;;;;;;;25.40;92.70;;;;;;5145680;27;19925;-59
2022/07/13 09:05:06;;;;;;;;;;;25.30;92.70;;;;;;5146243;27;19974;-53
2022/07/13 09:07:33;;;;;;;;;;;25.30;92.80;;;;;;5145439;27;20182;-54
2022/07/13 09:10:01;;;;;;;;;;;25.30;92.80;;;;;;5146045;27;19926;-55
2022/07/13 09:12:28;;;;;;;;;;;25.30;92.90;;;;;;5146071;27;20249;-58
2022/07/13 09:15:06;;;;;;;;;;;25.30;92.90;;;;;;5146125;27;19926;-53
2022/07/13 09:17:33;;;;;;;;;;;25.30;92.90;;;;;;5145635;27;19904;-55
2022/07/13 09:20:03;;;;;;;;;;;25.30;92.90;;;;;;5145828;27;19907;-58
2022/07/13 09:22:29;;;;;;;;;;;25.30;93.00;;;;;;5145365;27;19977;-59
2022/07/13 09:24:56;;;;;;;;;;;25.30;93.00;;;;;;5145932;27;19910;-52
2022/07/13 09:27:22;;;;;;;;;;;25.20;93.10;;;;;;5145582;27;20191;-56
2022/07/13 09:29:49;;;;;;;;;;;25.20;93.10;;;;;;5146066;28;19910;-55
2022/07/13 09:32:15;;;;;;;;;;;25.20;93.10;;;;;;5145663;28;20103;-53
2022/07/13 09:34:44;;;;;;;;;;;25.20;93.20;;;;;;5146289;28;19914;-54
2022/07/13 09:37:11;;;;;;;;;;;25.20;93.20;;;;;;5145354;28;19910;-57
2022/07/13 09:40:09;;;;;;;;;;;25.20;93.20;;;;;;5145761;28;19910;-55
2022/07/13 09:42:36;;;;;;;;;;;25.20;93.20;;;;;;5144408;28;20191;-55
2022/07/13 09:47:49;;;;;;;;;;;25.10;93.40;;;;;;5145565;28;19960;-58
2022/07/13 09:50:19;;;;;;;;;;;25.10;93.40;;;;;;5145569;28;19900;-62
2022/07/13 09:52:49;;;;;;;;;;;25.10;93.40;;;;;;5145266;28;19914;-56
2022/07/13 09:55:20;;;;;;;;;;;25.10;93.50;;;;;;5145927;28;20065;-59
2022/07/13 09:57:47;;;;;;;;;;;25.10;93.50;;;;;;5145256;28;19907;-58
2022/07/13 10:00:17;;;;;;;;;;;25.10;93.50;;;;;;5145610;28;19901;-54
2022/07/13 10:02:47;;;;;;;;;;;25.00;93.50;;;;;;5147858;27;20017;-57
2022/07/13 10:05:15;;;;;;;;;;;25.00;93.50;;;;;;5149879;27;19936;-58
2022/07/13 10:07:42;;;;;;;;;;;25.00;93.50;;;;;;5149105;27;19911;-58
2022/07/13 10:10:08;;;;;;;;;;;25.00;93.50;;;;;;5149753;27;19935;-60
2022/07/13 10:12:36;;;;;;;;;;;25.00;93.40;;;;;;5149000;27;19907;-58
2022/07/13 10:15:03;;;;;;;;;;;25.00;93.40;;;;;;5149598;27;20075;-55
2022/07/13 10:17:29;;;;;;;;;;;25.00;93.40;;;;;;5149188;27;19931;-60
2022/07/13 10:19:56;;;;;;;;;;;25.00;93.40;;;;;;5149131;27;19906;-58
2022/07/13 10:22:23;;;;;;;;;;;25.00;93.40;;;;;;5148684;27;19911;-58
2022/07/13 10:24:55;;;;;;;;;;;25.00;93.30;;;;;;5149472;27;19900;-61
2022/07/13 10:27:28;;;;;;;;;;;25.00;93.30;;;;;;5149325;27;20059;-56
2022/07/13 10:29:59;;;;;;;;;;;24.90;93.40;;;;;;5149571;27;19974;-60
2022/07/13 10:32:26;;;;;;;;;;;24.90;93.40;;;;;;5148875;27;19907;-58
2022/07/13 10:35:00;;;;;;;;;;;24.90;93.40;;;;;;5148541;27;20188;-58
2022/07/13 10:37:26;;;;;;;;;;;24.80;93.40;;;;;;5148512;27;20231;-59
2022/07/13 10:40:11;;;;;;;;;;;24.80;93.40;;;;;;5148723;27;19968;-59
2022/07/13 10:43:06;;;;;;;;;;;24.80;93.40;;;;;;5148669;27;19984;-57
2022/07/13 10:45:42;;;;;;;;;;;24.80;93.40;;;;;;5145380;27;19907;-60
2022/07/13 10:48:18;;;;;;;;;;;24.80;93.40;;;;;;5148418;27;19908;-58
2022/07/13 10:50:45;;;;;;;;;;;24.80;93.40;;;;;;5148091;27;19946;-58
2022/07/13 10:53:12;;;;;;;;;;;24.70;93.50;;;;;;5148575;27;19899;-57
2022/07/13 10:55:45;;;;;;;;;;;24.70;93.40;;;;;;5148227;27;20100;-56
2022/07/13 10:58:30;;;;;;;;;;;24.70;93.50;;;;;;5148399;27;19899;-61
2022/07/13 11:00:56;;;;;;;;;;;24.70;93.50;;;;;;5147954;27;20191;-65
2022/07/13 11:03:38;;;;;;;;;;;24.70;93.50;;;;;;5148216;27;19900;-64
2022/07/13 11:06:08;;;;;;;;;;;24.70;93.60;;;;;;5148444;27;19974;-55
2022/07/13 11:08:35;;;;;;;;;;;24.60;93.60;;;;;;5147943;27;19986;-52
2022/07/13 11:11:13;;;;;;;;;;;24.70;93.60;;;;;;5148178;27;19942;-59
2022/07/13 11:13:39;;;;;;;;;;;24.60;93.50;;;;;;5148110;27;19909;-57
2022/07/13 11:16:07;;;;;;;;;;;24.70;93.50;;;;;;5147837;27;20079;-62
2022/07/13 11:18:37;;;;;;;;;;;24.70;93.60;;;;;;5147126;27;19903;-59
2022/07/13 11:21:05;;;;;;;;;;;24.70;93.60;;;;;;5147665;27;19908;-61
2022/07/13 11:26:18;;;;;;;;;;;24.60;93.70;;;;;;5147944;27;19911;-56
2022/07/13 11:28:47;;;;;;;;;;;24.60;93.70;;;;;;5147977;27;20056;-59
2022/07/13 11:31:14;;;;;;;;;;;24.60;93.80;;;;;;5145840;27;20105;-56
2022/07/13 11:33:53;;;;;;;;;;;24.60;93.80;;;;;;5138859;27;19904;-56
2022/07/13 11:36:23;;;;;;;;;;;24.60;93.80;;;;;;5146816;27;19943;-60
2022/07/13 11:38:50;;;;;;;;;;;24.60;93.90;;;;;;5125873;27;20187;-55
2022/07/13 11:41:20;;;;;;;;;;;24.50;93.90;;;;;;5147291;27;19904;-58
2022/07/13 11:43:50;;;;;;;;;;;24.50;93.90;;;;;;5147535;27;20206;-58
2022/07/13 11:46:23;;;;;;;;;;;24.60;94.00;;;;;;5147332;27;19899;-56
2022/07/13 11:49:09;;;;;;;;;;;24.60;94.00;;;;;;5147516;27;20155;-59
2022/07/13 11:51:35;;;;;;;;;;;24.60;94.00;;;;;;5146994;27;19903;-55
2022/07/13 11:54:11;;;;;;;;;;;24.60;94.10;;;;;;5147076;27;19907;-57
2022/07/13 11:56:51;;;;;;;;;;;24.60;94.10;;;;;;5147138;27;19966;-55
2022/07/13 11:59:36;;;;;;;;;;;24.60;94.10;;;;;;5147437;27;19978;-53
2022/07/13 12:02:03;;;;;;;;;;;24.60;94.20;;;;;;5145999;27;19914;-56
2022/07/13 12:04:30;;;;;;;;;;;24.60;94.20;;;;;;5147471;27;19907;-55
2022/07/13 12:07:09;;;;;;;;;;;24.60;94.20;;;;;;5146901;27;19936;-59
2022/07/13 12:09:36;;;;;;;;;;;24.60;94.20;;;;;;5147477;27;19929;-60
2022/07/13 12:12:02;;;;;;;;;;;24.60;94.10;;;;;;5146883;27;20118;-60
2022/07/13 12:14:28;;;;;;;;;;;24.60;94.20;;;;;;5145839;27;19907;-59
2022/07/13 12:16:55;;;;;;;;;;;24.60;94.10;;;;;;5146512;27;19900;-60
2022/07/13 12:19:21;;;;;;;;;;;24.60;94.10;;;;;;5146953;27;19948;-58
2022/07/13 12:21:57;;;;;;;;;;;24.60;94.10;;;;;;5145419;27;19907;-58
2022/07/13 12:24:23;;;;;;;;;;;24.60;94.10;;;;;;5145911;27;19914;-58
2022/07/13 12:26:53;;;;;;;;;;;24.60;94.00;;;;;;5146757;27;19930;-63
2022/07/13 12:29:26;;;;;;;;;;;24.50;94.00;;;;;;5146835;27;19908;-56
2022/07/13 12:31:53;;;;;;;;;;;24.60;93.90;;;;;;5146325;27;19899;-58
2022/07/13 12:34:20;;;;;;;;;;;24.60;94.00;;;;;;5146188;27;19907;-62
2022/07/13 12:36:50;;;;;;;;;;;24.60;94.00;;;;;;5146073;27;19899;-65
2022/07/13 12:39:20;;;;;;;;;;;24.60;93.90;;;;;;5146346;27;20129;-56
2022/07/13 12:41:57;;;;;;;;;;;24.60;93.90;;;;;;5146182;27;19946;-58
2022/07/13 12:44:30;;;;;;;;;;;24.60;93.80;;;;;;5146499;27;19926;-58
2022/07/13 12:46:58;;;;;;;;;;;24.60;93.80;;;;;;5145496;27;19971;-57
2022/07/13 12:49:38;;;;;;;;;;;24.60;93.60;;;;;;5146006;27;19907;-63
2022/07/13 12:52:05;;;;;;;;;;;24.60;93.80;;;;;;5146141;27;19895;-62
2022/07/13 12:54:48;;;;;;;;;;;24.60;93.70;;;;;;5146492;27;19907;-58
2022/07/13 12:57:18;;;;;;;;;;;24.60;93.70;;;;;;5146160;27;19906;-60
2022/07/13 13:00:16;;;;;;;;;;;24.60;93.70;;;;;;5144259;27;20179;-59
2022/07/13 13:02:42;;;;;;;;;;;24.70;93.60;;;;;;5089769;27;19968;-61
2022/07/13 13:05:11;;;;;;;;;;;24.70;93.60;;;;;;5145336;27;19919;-61
2022/07/13 13:07:38;;;;;;;;;;;24.70;93.50;;;;;;5144678;27;19903;-61
2022/07/13 13:10:05;;;;;;;;;;;24.80;93.60;;;;;;5146249;27;19914;-58
2022/07/13 13:12:31;;;;;;;;;;;24.80;93.50;;;;;;5145838;27;19900;-57
2022/07/13 13:15:01;;;;;;;;;;;24.80;93.50;;;;;;5146230;27;19938;-64
2022/07/13 13:17:28;;;;;;;;;;;24.90;93.40;;;;;;5145550;27;19903;-60
2022/07/13 13:19:54;;;;;;;;;;;24.90;93.40;;;;;;5145965;27;19978;-60
2022/07/13 13:22:20;;;;;;;;;;;25.00;93.30;;;;;;5145274;27;20191;-59
2022/07/13 13:24:46;;;;;;;;;;;25.00;93.20;;;;;;5146063;27;20224;-61
2022/07/13 13:27:13;;;;;;;;;;;25.10;93.30;;;;;;5145403;27;19937;-56
2022/07/13 13:32:23;;;;;;;;;;;25.20;93.30;;;;;;5145723;28;19929;-60
2022/07/13 13:34:49;;;;;;;;;;;25.20;93.20;;;;;;5127205;28;19982;-61
2022/07/13 13:37:16;;;;;;;;;;;25.30;93.30;;;;;;5148806;27;19907;-57
2022/07/13 13:39:42;;;;;;;;;;;25.30;93.10;;;;;;5148981;27;19907;-57
2022/07/13 13:42:08;;;;;;;;;;;25.30;93.20;;;;;;5148724;27;19915;-59
2022/07/13 13:44:34;;;;;;;;;;;25.30;93.20;;;;;;5149042;27;19907;-63
2022/07/13 13:47:00;;;;;;;;;;;25.40;93.20;;;;;;5149250;27;19906;-56
2022/07/13 13:49:27;;;;;;;;;;;25.40;93.20;;;;;;5147348;27;20073;-58
2022/07/13 13:51:53;;;;;;;;;;;25.50;93.30;;;;;;5149190;27;20091;-61
2022/07/13 13:54:19;;;;;;;;;;;25.50;93.20;;;;;;5149495;27;19914;-59
2022/07/13 13:56:45;;;;;;;;;;;25.50;93.30;;;;;;5149236;27;19899;-57
2022/07/13 13:59:11;;;;;;;;;;;25.60;93.20;;;;;;5149128;27;19915;-62
2022/07/13 14:01:38;;;;;;;;;;;25.60;92.90;;;;;;5148969;27;20148;-65
2022/07/13 14:04:05;;;;;;;;;;;25.70;93.00;;;;;;5149650;27;19907;-60
2022/07/13 14:06:31;;;;;;;;;;;25.70;92.90;;;;;;5149097;27;19903;-61
2022/07/13 14:08:57;;;;;;;;;;;25.70;92.80;;;;;;5147862;27;19922;-61
2022/07/13 14:11:23;;;;;;;;;;;25.70;92.80;;;;;;5149096;27;20126;-59
2022/07/13 14:13:49;;;;;;;;;;;25.80;92.70;;;;;;5148363;27;19907;-58
2022/07/13 14:16:16;;;;;;;;;;;25.80;92.70;;;;;;5148401;27;19970;-59
2022/07/13 14:18:42;;;;;;;;;;;25.80;92.70;;;;;;5147496;27;19907;-58
2022/07/13 14:21:08;;;;;;;;;;;25.80;92.70;;;;;;5146841;27;19929;-58
2022/07/13 14:23:35;;;;;;;;;;;25.80;92.50;;;;;;5148378;27;20112;-58
2022/07/13 14:26:01;;;;;;;;;;;25.90;92.60;;;;;;5149017;27;19907;-63
2022/07/13 14:28:27;;;;;;;;;;;25.90;92.70;;;;;;5147766;27;19974;-68
2022/07/13 14:30:53;;;;;;;;;;;25.90;92.70;;;;;;5148690;27;19910;-65